sensor_id;sensor_type;location;lat;lon;timestamp;temperature;humidity
2721;DHT22;1368;49.484;11.112;2022-08-19T00:01:32;21.70;99.90
2721;DHT22;1368;49.484;11.112;2022-08-19T00:04:00;21.90;99.90
2721;DHT22;1368;49.484;11.112;2022-08-19T00:06:28;21.70;99.90
2721;DHT22;1368;49.484;11.112;2022-08-19T00:08:54;22.30;99.90
2721;DHT22;1368;49.484;11.112;2022-08-19T00:11:19;22.20;99.90
2721;DHT22;1368;49.484;11.112;2022-08-19T00:13:45;22.20;99.90
2721;DHT22;1368;49.484;11.112;2022-08-19T00:16:13;22.20;99.90
2721;DHT22;1368;49.484;11.112;2022-08-19T00:18:39;22.20;99.90
2721;DHT22;1368;49.484;11.112;2022-08-19T00:21:04;22.30;99.90
2721;DHT22;1368;49.484;11.112;2022-08-19T00:23:32;22.20;99.90
2721;DHT22;1368;49.484;11.112;2022-08-19T00:26:00;22.30;99.90
2721;DHT22;1368;49.484;11.112;2022-08-19T00:28:25;22.30;99.90
2721;DHT22;1368;49.484;11.112;2022-08-19T00:30:51;22.30;99.90
2721;DHT22;1368;49.484;11.112;2022-08-19T00:33:19;22.40;99.90
2721;DHT22;1368;49.484;11.112;2022-08-19T00:35:44;22.40;99.90
2721;DHT22;1368;49.484;11.112;2022-08-19T00:38:10;22.40;99.90
2721;DHT22;1368;49.484;11.112;2022-08-19T00:40:35;22.40;99.90
2721;DHT22;1368;49.484;11.112;2022-08-19T00:43:01;22.40;99.90
2721;DHT22;1368;49.484;11.112;2022-08-19T00:45:32;22.40;99.90
2721;DHT22;1368;49.484;11.112;2022-08-19T00:48:01;22.40;99.90
2721;DHT22;1368;49.484;11.112;2022-08-19T00:50:29;22.30;99.90
2721;DHT22;1368;49.484;11.112;2022-08-19T00:52:56;22.20;99.90
2721;DHT22;1368;49.484;11.112;2022-08-19T00:55:25;22.30;99.90
2721;DHT22;1368;49.484;11.112;2022-08-19T00:58:00;22.20;99.90
2721;DHT22;1368;49.484;11.112;2022-08-19T01:00:28;22.30;99.90
2721;DHT22;1368;49.484;11.112;2022-08-19T01:02:54;22.40;99.90
2721;DHT22;1368;49.484;11.112;2022-08-19T01:05:23;22.50;99.90
2721;DHT22;1368;49.484;11.112;2022-08-19T01:07:49;22.60;99.90
2721;DHT22;1368;49.484;11.112;2022-08-19T01:10:19;22.60;99.90
2721;DHT22;1368;49.484;11.112;2022-08-19T01:12:49;22.60;99.90
2721;DHT22;1368;49.484;11.112;2022-08-19T01:15:21;22.50;99.90
2721;DHT22;1368;49.484;11.112;2022-08-19T01:17:48;22.50;99.90
2721;DHT22;1368;49.484;11.112;2022-08-19T01:20:18;22.40;99.90
2721;DHT22;1368;49.484;11.112;2022-08-19T01:22:53;22.50;99.90
2721;DHT22;1368;49.484;11.112;2022-08-19T01:25:26;22.50;99.90
2721;DHT22;1368;49.484;11.112;2022-08-19T01:27:53;22.60;99.90
2721;DHT22;1368;49.484;11.112;2022-08-19T01:30:24;22.60;99.90
2721;DHT22;1368;49.484;11.112;2022-08-19T01:32:51;22.60;99.90
2721;DHT22;1368;49.484;11.112;2022-08-19T01:35:17;22.60;99.90
2721;DHT22;1368;49.484;11.112;2022-08-19T01:40:22;22.60;99.90
2721;DHT22;1368;49.484;11.112;2022-08-19T01:42:49;22.60;99.90
2721;DHT22;1368;49.484;11.112;2022-08-19T01:45:16;22.70;99.90
2721;DHT22;1368;49.484;11.112;2022-08-19T01:47:42;22.70;99.90
2721;DHT22;1368;49.484;11.112;2022-08-19T01:50:09;22.80;99.90
2721;DHT22;1368;49.484;11.112;2022-08-19T01:52:36;22.80;99.90
2721;DHT22;1368;49.484;11.112;2022-08-19T01:55:04;22.80;99.90
2721;DHT22;1368;49.484;11.112;2022-08-19T01:57:30;22.70;99.90
2721;DHT22;1368;49.484;11.112;2022-08-19T01:59:56;22.70;99.90
2721;DHT22;1368;49.484;11.112;2022-08-19T02:02:22;22.70;99.90
2721;DHT22;1368;49.484;11.112;2022-08-19T02:04:48;22.70;99.90
2721;DHT22;1368;49.484;11.112;2022-08-19T02:07:14;22.60;99.90
2721;DHT22;1368;49.484;11.112;2022-08-19T02:09:40;22.60;99.90
2721;DHT22;1368;49.484;11.112;2022-08-19T02:12:06;22.60;99.90
2721;DHT22;1368;49.484;11.112;2022-08-19T02:14:35;22.70;99.90
2721;DHT22;1368;49.484;11.112;2022-08-19T02:17:01;22.70;99.90
2721;DHT22;1368;49.484;11.112;2022-08-19T02:19:27;22.70;99.90
2721;DHT22;1368;49.484;11.112;2022-08-19T02:21:53;22.70;99.90
2721;DHT22;1368;49.484;11.112;2022-08-19T02:24:18;22.70;99.90
2721;DHT22;1368;49.484;11.112;2022-08-19T02:26:44;22.80;99.90
2721;DHT22;1368;49.484;11.112;2022-08-19T02:29:10;22.80;99.90
2721;DHT22;1368;49.484;11.112;2022-08-19T02:31:35;22.30;99.90
2721;DHT22;1368;49.484;11.112;2022-08-19T02:34:01;22.70;99.90
2721;DHT22;1368;49.484;11.112;2022-08-19T02:36:27;22.80;99.90
2721;DHT22;1368;49.484;11.112;2022-08-19T02:38:54;22.80;99.90
2721;DHT22;1368;49.484;11.112;2022-08-19T02:41:22;22.70;99.90
2721;DHT22;1368;49.484;11.112;2022-08-19T02:43:48;22.80;99.90
2721;DHT22;1368;49.484;11.112;2022-08-19T02:46:20;22.80;99.90
2721;DHT22;1368;49.484;11.112;2022-08-19T02:48:51;22.70;99.90
2721;DHT22;1368;49.484;11.112;2022-08-19T02:51:19;22.70;99.90
2721;DHT22;1368;49.484;11.112;2022-08-19T02:53:45;22.80;99.90
2721;DHT22;1368;49.484;11.112;2022-08-19T02:56:11;22.80;99.90
2721;DHT22;1368;49.484;11.112;2022-08-19T02:58:36;22.80;99.90
2721;DHT22;1368;49.484;11.112;2022-08-19T03:01:02;22.70;99.90
2721;DHT22;1368;49.484;11.112;2022-08-19T03:03:28;22.60;99.90
2721;DHT22;1368;49.484;11.112;2022-08-19T03:06:07;22.50;99.90
2721;DHT22;1368;49.484;11.112;2022-08-19T03:08:33;22.50;99.90
2721;DHT22;1368;49.484;11.112;2022-08-19T03:10:58;22.50;99.90
2721;DHT22;1368;49.484;11.112;2022-08-19T03:13:24;22.60;99.90
2721;DHT22;1368;49.484;11.112;2022-08-19T03:15:49;22.60;99.90
2721;DHT22;1368;49.484;11.112;2022-08-19T03:18:16;22.50;99.90
2721;DHT22;1368;49.484;11.112;2022-08-19T03:20:49;22.50;99.90
2721;DHT22;1368;49.484;11.112;2022-08-19T03:23:16;22.30;99.90
2721;DHT22;1368;49.484;11.112;2022-08-19T03:25:45;22.40;99.90
2721;DHT22;1368;49.484;11.112;2022-08-19T03:28:14;22.30;99.90
2721;DHT22;1368;49.484;11.112;2022-08-19T03:30:41;22.20;99.90
2721;DHT22;1368;49.484;11.112;2022-08-19T03:33:08;22.10;99.90
2721;DHT22;1368;49.484;11.112;2022-08-19T03:35:34;22.00;99.90
2721;DHT22;1368;49.484;11.112;2022-08-19T03:38:04;21.90;99.90
2721;DHT22;1368;49.484;11.112;2022-08-19T03:40:31;21.90;99.90
2721;DHT22;1368;49.484;11.112;2022-08-19T03:42:57;21.90;99.90
2721;DHT22;1368;49.484;11.112;2022-08-19T03:45:23;21.70;99.90
2721;DHT22;1368;49.484;11.112;2022-08-19T03:47:49;21.80;99.90
2721;DHT22;1368;49.484;11.112;2022-08-19T03:50:15;22.00;99.90
2721;DHT22;1368;49.484;11.112;2022-08-19T03:52:41;22.20;99.90
2721;DHT22;1368;49.484;11.112;2022-08-19T03:55:07;22.30;99.90
2721;DHT22;1368;49.484;11.112;2022-08-19T03:57:33;22.40;99.90
2721;DHT22;1368;49.484;11.112;2022-08-19T04:00:00;22.40;99.90
2721;DHT22;1368;49.484;11.112;2022-08-19T04:02:25;22.30;99.90
2721;DHT22;1368;49.484;11.112;2022-08-19T04:04:53;22.20;99.90
2721;DHT22;1368;49.484;11.112;2022-08-19T04:07:19;22.10;99.90
2721;DHT22;1368;49.484;11.112;2022-08-19T04:09:47;21.90;99.90
2721;DHT22;1368;49.484;11.112;2022-08-19T04:12:12;21.90;99.90
2721;DHT22;1368;49.484;11.112;2022-08-19T04:14:38;22.00;99.90
2721;DHT22;1368;49.484;11.112;2022-08-19T04:17:05;22.10;99.90
2721;DHT22;1368;49.484;11.112;2022-08-19T04:19:31;21.70;99.90
2721;DHT22;1368;49.484;11.112;2022-08-19T04:21:58;22.20;99.90
2721;DHT22;1368;49.484;11.112;2022-08-19T04:24:24;22.30;99.90
2721;DHT22;1368;49.484;11.112;2022-08-19T04:26:50;22.30;99.90
2721;DHT22;1368;49.484;11.112;2022-08-19T04:29:19;22.40;99.90
2721;DHT22;1368;49.484;11.112;2022-08-19T04:31:47;22.40;99.90
2721;DHT22;1368;49.484;11.112;2022-08-19T04:34:15;22.50;99.90
2721;DHT22;1368;49.484;11.112;2022-08-19T04:36:42;22.40;99.90
2721;DHT22;1368;49.484;11.112;2022-08-19T04:39:18;22.50;99.90
2721;DHT22;1368;49.484;11.112;2022-08-19T04:41:44;22.40;99.90
2721;DHT22;1368;49.484;11.112;2022-08-19T04:44:31;22.50;99.90
2721;DHT22;1368;49.484;11.112;2022-08-19T04:46:57;22.30;99.90
2721;DHT22;1368;49.484;11.112;2022-08-19T04:49:23;22.10;99.90
2721;DHT22;1368;49.484;11.112;2022-08-19T04:51:50;22.00;99.90
2721;DHT22;1368;49.484;11.112;2022-08-19T04:54:17;22.10;99.90
2721;DHT22;1368;49.484;11.112;2022-08-19T04:56:45;22.10;99.90
2721;DHT22;1368;49.484;11.112;2022-08-19T04:59:11;22.20;99.90
2721;DHT22;1368;49.484;11.112;2022-08-19T05:01:37;22.20;99.90
2721;DHT22;1368;49.484;11.112;2022-08-19T05:04:05;22.40;99.90
2721;DHT22;1368;49.484;11.112;2022-08-19T05:06:32;22.60;99.90
2721;DHT22;1368;49.484;11.112;2022-08-19T05:09:03;22.60;99.90
2721;DHT22;1368;49.484;11.112;2022-08-19T05:11:32;22.60;99.90
2721;DHT22;1368;49.484;11.112;2022-08-19T05:13:58;22.70;99.90
2721;DHT22;1368;49.484;11.112;2022-08-19T05:16:25;22.70;99.90
2721;DHT22;1368;49.484;11.112;2022-08-19T05:18:52;22.80;99.90
2721;DHT22;1368;49.484;11.112;2022-08-19T05:21:36;22.90;99.90
2721;DHT22;1368;49.484;11.112;2022-08-19T05:24:22;23.00;99.90
2721;DHT22;1368;49.484;11.112;2022-08-19T05:26:50;22.90;99.90
2721;DHT22;1368;49.484;11.112;2022-08-19T05:29:19;22.90;99.90
2721;DHT22;1368;49.484;11.112;2022-08-19T05:31:46;23.10;99.90
2721;DHT22;1368;49.484;11.112;2022-08-19T05:34:12;23.20;99.90
2721;DHT22;1368;49.484;11.112;2022-08-19T05:36:42;23.30;99.90
2721;DHT22;1368;49.484;11.112;2022-08-19T05:39:12;23.40;99.90
2721;DHT22;1368;49.484;11.112;2022-08-19T05:41:43;23.60;99.90
2721;DHT22;1368;49.484;11.112;2022-08-19T05:44:08;23.70;99.90
2721;DHT22;1368;49.484;11.112;2022-08-19T05:46:36;23.40;99.90
2721;DHT22;1368;49.484;11.112;2022-08-19T05:49:04;23.50;99.90
2721;DHT22;1368;49.484;11.112;2022-08-19T05:51:32;23.60;99.90
2721;DHT22;1368;49.484;11.112;2022-08-19T05:53:58;23.90;99.90
2721;DHT22;1368;49.484;11.112;2022-08-19T05:56:24;24.30;99.90
2721;DHT22;1368;49.484;11.112;2022-08-19T05:58:49;24.40;99.90
2721;DHT22;1368;49.484;11.112;2022-08-19T06:01:17;24.40;99.90
2721;DHT22;1368;49.484;11.112;2022-08-19T06:03:44;24.70;99.90
2721;DHT22;1368;49.484;11.112;2022-08-19T06:06:11;25.20;99.90
2721;DHT22;1368;49.484;11.112;2022-08-19T06:08:37;25.40;99.90
2721;DHT22;1368;49.484;11.112;2022-08-19T06:11:24;25.80;99.90
2721;DHT22;1368;49.484;11.112;2022-08-19T06:13:52;26.60;99.90
2721;DHT22;1368;49.484;11.112;2022-08-19T06:16:20;27.20;99.90
2721;DHT22;1368;49.484;11.112;2022-08-19T06:18:51;28.00;99.90
2721;DHT22;1368;49.484;11.112;2022-08-19T06:21:21;28.70;99.90
2721;DHT22;1368;49.484;11.112;2022-08-19T06:23:47;29.10;99.90
2721;DHT22;1368;49.484;11.112;2022-08-19T06:26:14;29.20;99.90
2721;DHT22;1368;49.484;11.112;2022-08-19T06:28:40;29.10;99.90
2721;DHT22;1368;49.484;11.112;2022-08-19T06:31:09;28.30;99.90
2721;DHT22;1368;49.484;11.112;2022-08-19T06:33:35;28.10;99.90
2721;DHT22;1368;49.484;11.112;2022-08-19T06:36:01;27.80;99.90
2721;DHT22;1368;49.484;11.112;2022-08-19T06:38:26;27.60;99.90
2721;DHT22;1368;49.484;11.112;2022-08-19T06:41:01;27.40;99.90
2721;DHT22;1368;49.484;11.112;2022-08-19T06:43:26;27.30;99.90
2721;DHT22;1368;49.484;11.112;2022-08-19T06:45:52;27.20;99.90
2721;DHT22;1368;49.484;11.112;2022-08-19T06:48:17;27.10;99.90
2721;DHT22;1368;49.484;11.112;2022-08-19T06:50:43;27.00;99.90
2721;DHT22;1368;49.484;11.112;2022-08-19T06:53:09;26.90;99.90
2721;DHT22;1368;49.484;11.112;2022-08-19T06:55:34;25.90;99.90
2721;DHT22;1368;49.484;11.112;2022-08-19T06:58:04;25.20;99.90
2721;DHT22;1368;49.484;11.112;2022-08-19T07:00:30;24.70;99.90
2721;DHT22;1368;49.484;11.112;2022-08-19T07:02:55;24.70;99.90
2721;DHT22;1368;49.484;11.112;2022-08-19T07:05:21;24.40;99.90
2721;DHT22;1368;49.484;11.112;2022-08-19T07:07:47;24.60;99.90
2721;DHT22;1368;49.484;11.112;2022-08-19T07:10:12;24.80;99.90
2721;DHT22;1368;49.484;11.112;2022-08-19T07:12:38;24.90;99.90
2721;DHT22;1368;49.484;11.112;2022-08-19T07:15:06;24.80;99.90
2721;DHT22;1368;49.484;11.112;2022-08-19T07:17:33;25.00;99.90
2721;DHT22;1368;49.484;11.112;2022-08-19T07:20:05;25.00;99.90
2721;DHT22;1368;49.484;11.112;2022-08-19T07:22:33;25.30;99.90
2721;DHT22;1368;49.484;11.112;2022-08-19T07:24:59;25.40;99.90
2721;DHT22;1368;49.484;11.112;2022-08-19T07:27:25;25.50;99.90
2721;DHT22;1368;49.484;11.112;2022-08-19T07:29:52;25.30;99.90
2721;DHT22;1368;49.484;11.112;2022-08-19T07:32:18;25.40;99.90
2721;DHT22;1368;49.484;11.112;2022-08-19T07:34:43;25.50;99.90
2721;DHT22;1368;49.484;11.112;2022-08-19T07:37:11;24.90;99.90
2721;DHT22;1368;49.484;11.112;2022-08-19T07:39:38;24.70;99.90
2721;DHT22;1368;49.484;11.112;2022-08-19T07:42:08;24.60;99.90
2721;DHT22;1368;49.484;11.112;2022-08-19T07:44:35;24.00;99.90
2721;DHT22;1368;49.484;11.112;2022-08-19T07:47:01;23.60;99.90
2721;DHT22;1368;49.484;11.112;2022-08-19T07:49:28;23.50;99.90
2721;DHT22;1368;49.484;11.112;2022-08-19T07:51:59;23.20;99.90
2721;DHT22;1368;49.484;11.112;2022-08-19T07:54:29;22.90;99.90
2721;DHT22;1368;49.484;11.112;2022-08-19T07:56:55;22.80;99.90
2721;DHT22;1368;49.484;11.112;2022-08-19T07:59:21;23.00;99.90
2721;DHT22;1368;49.484;11.112;2022-08-19T08:01:48;23.00;99.90
2721;DHT22;1368;49.484;11.112;2022-08-19T08:04:15;23.10;99.90
2721;DHT22;1368;49.484;11.112;2022-08-19T08:06:59;23.30;99.90
2721;DHT22;1368;49.484;11.112;2022-08-19T08:09:44;23.20;99.90
2721;DHT22;1368;49.484;11.112;2022-08-19T08:12:16;22.90;99.90
2721;DHT22;1368;49.484;11.112;2022-08-19T08:14:46;23.10;99.90
2721;DHT22;1368;49.484;11.112;2022-08-19T08:17:14;22.90;99.90
2721;DHT22;1368;49.484;11.112;2022-08-19T08:19:40;23.00;99.90
2721;DHT22;1368;49.484;11.112;2022-08-19T08:22:07;22.90;99.90
2721;DHT22;1368;49.484;11.112;2022-08-19T08:24:33;23.00;99.90
2721;DHT22;1368;49.484;11.112;2022-08-19T08:27:01;23.20;99.90
2721;DHT22;1368;49.484;11.112;2022-08-19T08:29:29;23.50;99.90
2721;DHT22;1368;49.484;11.112;2022-08-19T08:31:55;23.70;99.90
2721;DHT22;1368;49.484;11.112;2022-08-19T08:34:21;23.80;99.90
2721;DHT22;1368;49.484;11.112;2022-08-19T08:36:47;23.80;99.90
2721;DHT22;1368;49.484;11.112;2022-08-19T08:39:15;23.80;99.90
2721;DHT22;1368;49.484;11.112;2022-08-19T08:42:07;23.80;99.90
2721;DHT22;1368;49.484;11.112;2022-08-19T08:44:52;23.80;99.90
2721;DHT22;1368;49.484;11.112;2022-08-19T08:47:32;23.90;99.90
2721;DHT22;1368;49.484;11.112;2022-08-19T08:50:07;23.90;99.90
2721;DHT22;1368;49.484;11.112;2022-08-19T08:52:41;24.00;99.90
2721;DHT22;1368;49.484;11.112;2022-08-19T08:55:18;23.90;99.90
2721;DHT22;1368;49.484;11.112;2022-08-19T09:02:46;23.40;99.90
2721;DHT22;1368;49.484;11.112;2022-08-19T09:05:12;23.30;99.90
2721;DHT22;1368;49.484;11.112;2022-08-19T09:10:49;23.40;99.90
2721;DHT22;1368;49.484;11.112;2022-08-19T09:16:14;23.70;99.90
2721;DHT22;1368;49.484;11.112;2022-08-19T09:18:42;23.90;99.90
2721;DHT22;1368;49.484;11.112;2022-08-19T09:21:07;24.10;99.90
2721;DHT22;1368;49.484;11.112;2022-08-19T09:23:35;24.20;99.90
2721;DHT22;1368;49.484;11.112;2022-08-19T09:26:00;24.10;99.90
2721;DHT22;1368;49.484;11.112;2022-08-19T09:28:26;24.60;99.90
2721;DHT22;1368;49.484;11.112;2022-08-19T09:30:53;24.40;99.90
2721;DHT22;1368;49.484;11.112;2022-08-19T09:33:18;24.50;99.90
2721;DHT22;1368;49.484;11.112;2022-08-19T09:35:45;24.20;99.90
2721;DHT22;1368;49.484;11.112;2022-08-19T09:38:11;24.10;99.90
2721;DHT22;1368;49.484;11.112;2022-08-19T09:40:37;24.10;99.90
2721;DHT22;1368;49.484;11.112;2022-08-19T09:43:02;24.00;99.90
2721;DHT22;1368;49.484;11.112;2022-08-19T09:45:28;23.40;99.90
2721;DHT22;1368;49.484;11.112;2022-08-19T09:47:54;23.40;99.90
2721;DHT22;1368;49.484;11.112;2022-08-19T09:50:20;23.30;99.90
2721;DHT22;1368;49.484;11.112;2022-08-19T09:52:47;23.40;99.90
2721;DHT22;1368;49.484;11.112;2022-08-19T09:55:13;23.90;99.90
2721;DHT22;1368;49.484;11.112;2022-08-19T09:57:38;24.00;99.90
2721;DHT22;1368;49.484;11.112;2022-08-19T10:00:06;23.90;99.90
2721;DHT22;1368;49.484;11.112;2022-08-19T10:02:32;24.20;99.90
2721;DHT22;1368;49.484;11.112;2022-08-19T10:04:58;24.40;99.90
2721;DHT22;1368;49.484;11.112;2022-08-19T10:07:47;24.00;99.90
2721;DHT22;1368;49.484;11.112;2022-08-19T10:10:13;24.20;99.90
2721;DHT22;1368;49.484;11.112;2022-08-19T10:12:38;24.40;99.90
2721;DHT22;1368;49.484;11.112;2022-08-19T10:15:05;24.40;99.90
2721;DHT22;1368;49.484;11.112;2022-08-19T10:17:31;24.50;99.90
2721;DHT22;1368;49.484;11.112;2022-08-19T10:19:59;24.20;99.90
2721;DHT22;1368;49.484;11.112;2022-08-19T10:22:25;23.70;99.90
2721;DHT22;1368;49.484;11.112;2022-08-19T10:24:50;23.40;99.90
2721;DHT22;1368;49.484;11.112;2022-08-19T10:27:17;23.50;99.90
2721;DHT22;1368;49.484;11.112;2022-08-19T10:29:42;23.60;99.90
2721;DHT22;1368;49.484;11.112;2022-08-19T10:32:08;23.90;99.90
2721;DHT22;1368;49.484;11.112;2022-08-19T10:34:37;23.90;99.90
2721;DHT22;1368;49.484;11.112;2022-08-19T10:37:04;23.80;99.90
2721;DHT22;1368;49.484;11.112;2022-08-19T10:39:32;23.50;99.90
2721;DHT22;1368;49.484;11.112;2022-08-19T10:41:58;23.90;99.90
2721;DHT22;1368;49.484;11.112;2022-08-19T10:44:24;24.10;99.90
2721;DHT22;1368;49.484;11.112;2022-08-19T10:46:50;23.90;99.90
2721;DHT22;1368;49.484;11.112;2022-08-19T10:49:17;23.90;99.90
2721;DHT22;1368;49.484;11.112;2022-08-19T10:51:44;23.70;99.90
2721;DHT22;1368;49.484;11.112;2022-08-19T10:54:28;23.70;99.90
2721;DHT22;1368;49.484;11.112;2022-08-19T10:57:15;23.80;99.90
2721;DHT22;1368;49.484;11.112;2022-08-19T10:59:41;23.70;99.90
2721;DHT22;1368;49.484;11.112;2022-08-19T11:02:10;23.50;99.90
2721;DHT22;1368;49.484;11.112;2022-08-19T11:04:38;23.70;99.90
2721;DHT22;1368;49.484;11.112;2022-08-19T11:07:05;23.90;99.90
2721;DHT22;1368;49.484;11.112;2022-08-19T11:09:31;23.40;99.90
2721;DHT22;1368;49.484;11.112;2022-08-19T11:11:56;23.30;99.90
2721;DHT22;1368;49.484;11.112;2022-08-19T11:14:23;23.60;99.90
2721;DHT22;1368;49.484;11.112;2022-08-19T11:16:51;23.50;99.90
2721;DHT22;1368;49.484;11.112;2022-08-19T11:19:21;23.60;99.90
2721;DHT22;1368;49.484;11.112;2022-08-19T11:21:49;23.40;99.90
2721;DHT22;1368;49.484;11.112;2022-08-19T11:24:21;23.20;99.90
2721;DHT22;1368;49.484;11.112;2022-08-19T11:26:49;23.10;99.90
2721;DHT22;1368;49.484;11.112;2022-08-19T11:29:16;22.90;99.90
2721;DHT22;1368;49.484;11.112;2022-08-19T11:31:44;22.90;99.90
2721;DHT22;1368;49.484;11.112;2022-08-19T11:34:13;22.80;99.90
2721;DHT22;1368;49.484;11.112;2022-08-19T11:36:42;22.90;99.90
2721;DHT22;1368;49.484;11.112;2022-08-19T11:39:11;22.70;99.90
2721;DHT22;1368;49.484;11.112;2022-08-19T11:41:37;22.80;99.90
2721;DHT22;1368;49.484;11.112;2022-08-19T11:44:03;22.50;99.90
2721;DHT22;1368;49.484;11.112;2022-08-19T11:46:30;22.30;99.90
2721;DHT22;1368;49.484;11.112;2022-08-19T11:48:59;22.20;99.90
2721;DHT22;1368;49.484;11.112;2022-08-19T11:51:28;22.10;99.90
2721;DHT22;1368;49.484;11.112;2022-08-19T11:53:56;22.20;99.90
2721;DHT22;1368;49.484;11.112;2022-08-19T11:56:22;22.40;99.90
2721;DHT22;1368;49.484;11.112;2022-08-19T11:58:49;22.50;99.90
2721;DHT22;1368;49.484;11.112;2022-08-19T12:01:17;22.80;99.90
2721;DHT22;1368;49.484;11.112;2022-08-19T12:03:44;23.10;99.90
2721;DHT22;1368;49.484;11.112;2022-08-19T12:06:14;23.30;99.90
2721;DHT22;1368;49.484;11.112;2022-08-19T12:08:41;23.60;99.90
2721;DHT22;1368;49.484;11.112;2022-08-19T12:11:07;23.60;99.90
2721;DHT22;1368;49.484;11.112;2022-08-19T12:13:34;23.60;99.90
2721;DHT22;1368;49.484;11.112;2022-08-19T12:16:00;23.40;99.90
2721;DHT22;1368;49.484;11.112;2022-08-19T12:18:26;23.20;99.90
2721;DHT22;1368;49.484;11.112;2022-08-19T12:20:53;23.20;99.90
2721;DHT22;1368;49.484;11.112;2022-08-19T12:23:21;23.40;99.90
2721;DHT22;1368;49.484;11.112;2022-08-19T12:25:49;23.00;99.90
2721;DHT22;1368;49.484;11.112;2022-08-19T12:28:19;22.80;99.90
2721;DHT22;1368;49.484;11.112;2022-08-19T12:30:45;22.90;99.90
2721;DHT22;1368;49.484;11.112;2022-08-19T12:33:11;22.90;99.90
2721;DHT22;1368;49.484;11.112;2022-08-19T12:35:43;23.10;99.90
2721;DHT22;1368;49.484;11.112;2022-08-19T12:38:10;23.10;99.90
2721;DHT22;1368;49.484;11.112;2022-08-19T12:40:35;23.10;99.90
2721;DHT22;1368;49.484;11.112;2022-08-19T12:43:01;22.90;99.90
2721;DHT22;1368;49.484;11.112;2022-08-19T12:45:27;22.50;99.90
2721;DHT22;1368;49.484;11.112;2022-08-19T12:47:53;22.40;99.90
2721;DHT22;1368;49.484;11.112;2022-08-19T12:50:19;22.60;99.90
2721;DHT22;1368;49.484;11.112;2022-08-19T12:52:47;22.60;99.90
2721;DHT22;1368;49.484;11.112;2022-08-19T12:55:13;22.60;99.90
2721;DHT22;1368;49.484;11.112;2022-08-19T12:57:38;22.70;99.90
2721;DHT22;1368;49.484;11.112;2022-08-19T13:00:09;22.90;99.90
2721;DHT22;1368;49.484;11.112;2022-08-19T13:02:36;22.80;99.90
2721;DHT22;1368;49.484;11.112;2022-08-19T13:05:03;23.10;99.90
2721;DHT22;1368;49.484;11.112;2022-08-19T13:07:31;23.20;99.90
2721;DHT22;1368;49.484;11.112;2022-08-19T13:09:57;23.10;99.90
2721;DHT22;1368;49.484;11.112;2022-08-19T13:12:22;23.20;99.90
2721;DHT22;1368;49.484;11.112;2022-08-19T13:14:52;23.40;99.90
2721;DHT22;1368;49.484;11.112;2022-08-19T13:17:19;23.60;99.90
2721;DHT22;1368;49.484;11.112;2022-08-19T13:19:45;23.30;99.90
2721;DHT22;1368;49.484;11.112;2022-08-19T13:22:10;24.00;99.90
2721;DHT22;1368;49.484;11.112;2022-08-19T13:24:37;24.20;99.90
2721;DHT22;1368;49.484;11.112;2022-08-19T13:27:03;24.20;99.90
2721;DHT22;1368;49.484;11.112;2022-08-19T13:29:28;24.20;99.90
2721;DHT22;1368;49.484;11.112;2022-08-19T13:32:13;24.30;99.90
2721;DHT22;1368;49.484;11.112;2022-08-19T13:34:57;24.70;99.90
2721;DHT22;1368;49.484;11.112;2022-08-19T13:37:22;24.30;99.90
2721;DHT22;1368;49.484;11.112;2022-08-19T13:40:07;24.40;99.90
2721;DHT22;1368;49.484;11.112;2022-08-19T13:42:38;24.50;99.90
2721;DHT22;1368;49.484;11.112;2022-08-19T13:45:05;24.40;99.90
2721;DHT22;1368;49.484;11.112;2022-08-19T13:47:32;24.40;99.90
2721;DHT22;1368;49.484;11.112;2022-08-19T13:50:00;24.10;99.90
2721;DHT22;1368;49.484;11.112;2022-08-19T13:52:25;23.80;99.90
2721;DHT22;1368;49.484;11.112;2022-08-19T13:54:51;23.60;99.90
2721;DHT22;1368;49.484;11.112;2022-08-19T13:57:17;23.10;99.90
2721;DHT22;1368;49.484;11.112;2022-08-19T13:59:42;22.60;99.90
2721;DHT22;1368;49.484;11.112;2022-08-19T14:02:08;22.50;99.90
2721;DHT22;1368;49.484;11.112;2022-08-19T14:04:33;22.30;99.90
2721;DHT22;1368;49.484;11.112;2022-08-19T14:06:59;22.10;99.90
2721;DHT22;1368;49.484;11.112;2022-08-19T14:09:25;22.10;99.90
2721;DHT22;1368;49.484;11.112;2022-08-19T14:11:50;21.90;99.90
2721;DHT22;1368;49.484;11.112;2022-08-19T14:14:16;21.90;99.90
2721;DHT22;1368;49.484;11.112;2022-08-19T14:16:42;21.80;99.90
2721;DHT22;1368;49.484;11.112;2022-08-19T14:19:08;21.60;99.90
2721;DHT22;1368;49.484;11.112;2022-08-19T14:21:33;22.00;99.90
2721;DHT22;1368;49.484;11.112;2022-08-19T14:23:59;20.90;99.90
2721;DHT22;1368;49.484;11.112;2022-08-19T14:26:26;20.70;99.90
2721;DHT22;1368;49.484;11.112;2022-08-19T14:28:52;20.40;99.90
2721;DHT22;1368;49.484;11.112;2022-08-19T14:31:18;20.30;99.90
2721;DHT22;1368;49.484;11.112;2022-08-19T14:33:46;20.30;99.90
2721;DHT22;1368;49.484;11.112;2022-08-19T14:36:11;20.40;99.90
2721;DHT22;1368;49.484;11.112;2022-08-19T14:38:37;20.80;99.90
2721;DHT22;1368;49.484;11.112;2022-08-19T14:41:32;20.70;99.90
2721;DHT22;1368;49.484;11.112;2022-08-19T14:43:58;20.70;99.90
2721;DHT22;1368;49.484;11.112;2022-08-19T14:46:28;20.90;99.90
2721;DHT22;1368;49.484;11.112;2022-08-19T14:48:54;21.00;99.90
2721;DHT22;1368;49.484;11.112;2022-08-19T14:51:24;21.10;99.90
2721;DHT22;1368;49.484;11.112;2022-08-19T14:53:51;21.20;99.90
2721;DHT22;1368;49.484;11.112;2022-08-19T14:56:21;21.30;99.90
2721;DHT22;1368;49.484;11.112;2022-08-19T14:58:47;21.30;99.90
2721;DHT22;1368;49.484;11.112;2022-08-19T15:01:13;21.40;99.90
2721;DHT22;1368;49.484;11.112;2022-08-19T15:03:39;21.50;99.90
2721;DHT22;1368;49.484;11.112;2022-08-19T15:06:07;21.70;99.90
2721;DHT22;1368;49.484;11.112;2022-08-19T15:08:34;21.50;99.90
2721;DHT22;1368;49.484;11.112;2022-08-19T15:11:01;21.60;99.90
2721;DHT22;1368;49.484;11.112;2022-08-19T15:13:28;21.70;99.90
2721;DHT22;1368;49.484;11.112;2022-08-19T15:15:54;21.70;99.90
2721;DHT22;1368;49.484;11.112;2022-08-19T15:18:21;21.90;99.90
2721;DHT22;1368;49.484;11.112;2022-08-19T15:20:47;21.90;99.90
2721;DHT22;1368;49.484;11.112;2022-08-19T15:23:15;21.90;99.90
2721;DHT22;1368;49.484;11.112;2022-08-19T15:25:41;22.00;99.90
2721;DHT22;1368;49.484;11.112;2022-08-19T15:28:07;22.00;99.90
2721;DHT22;1368;49.484;11.112;2022-08-19T15:30:37;22.00;99.90
2721;DHT22;1368;49.484;11.112;2022-08-19T15:33:03;22.10;99.90
2721;DHT22;1368;49.484;11.112;2022-08-19T15:35:29;22.20;99.90
2721;DHT22;1368;49.484;11.112;2022-08-19T15:37:55;22.10;99.90
2721;DHT22;1368;49.484;11.112;2022-08-19T15:40:22;22.20;99.90
2721;DHT22;1368;49.484;11.112;2022-08-19T15:42:48;22.10;99.90
2721;DHT22;1368;49.484;11.112;2022-08-19T15:45:15;22.10;99.90
2721;DHT22;1368;49.484;11.112;2022-08-19T15:47:41;21.90;99.90
2721;DHT22;1368;49.484;11.112;2022-08-19T15:50:09;21.80;99.90
2721;DHT22;1368;49.484;11.112;2022-08-19T15:52:36;21.80;99.90
2721;DHT22;1368;49.484;11.112;2022-08-19T15:55:04;21.70;99.90
2721;DHT22;1368;49.484;11.112;2022-08-19T15:57:31;21.60;99.90
2721;DHT22;1368;49.484;11.112;2022-08-19T16:00:15;21.50;99.90
2721;DHT22;1368;49.484;11.112;2022-08-19T16:02:59;21.50;99.90